sensor_id;sensor_type;location;lat;lon;timestamp;pressure;altitude;pressure_sealevel;temperature;humidity
84944;BME280;75231;53.650;9.788;2024-01-30T00:00:29;102886.03;;;3.69;85.39
84944;BME280;75231;53.650;9.788;2024-01-30T00:02:54;102880.91;;;3.67;85.37
84944;BME280;75231;53.650;9.788;2024-01-30T00:05:19;102874.94;;;3.67;85.17
84944;BME280;75231;53.650;9.788;2024-01-30T00:07:45;102882.66;;;3.70;85.32
84944;BME280;75231;53.650;9.788;2024-01-30T00:10:10;102871.56;;;3.69;85.19
84944;BME280;75231;53.650;9.788;2024-01-30T00:12:35;102876.66;;;3.71;85.29
84944;BME280;75231;53.650;9.788;2024-01-30T00:15:00;102874.09;;;3.68;85.35
84944;BME280;75231;53.650;9.788;2024-01-30T00:17:26;102874.94;;;3.68;85.52
84944;BME280;75231;53.650;9.788;2024-01-30T00:19:51;102870.72;;;3.61;85.18
84944;BME280;75231;53.650;9.788;2024-01-30T00:22:17;102873.25;;;3.64;85.28
84944;BME280;75231;53.650;9.788;2024-01-30T00:24:42;102867.28;;;3.62;85.12
84944;BME280;75231;53.650;9.788;2024-01-30T00:27:08;102873.25;;;3.59;85.49
84944;BME280;75231;53.650;9.788;2024-01-30T00:29:33;102864.69;;;3.60;85.31
84944;BME280;75231;53.650;9.788;2024-01-30T00:31:59;102874.97;;;3.63;85.15
84944;BME280;75231;53.650;9.788;2024-01-30T00:34:25;102869.84;;;3.63;85.42
84944;BME280;75231;53.650;9.788;2024-01-30T00:36:50;102869.84;;;3.63;85.35
84944;BME280;75231;53.650;9.788;2024-01-30T00:39:15;102866.44;;;3.64;85.16
84944;BME280;75231;53.650;9.788;2024-01-30T00:41:41;102868.13;;;3.65;84.85
84944;BME280;75231;53.650;9.788;2024-01-30T00:44:06;102867.28;;;3.62;84.89
84944;BME280;75231;53.650;9.788;2024-01-30T00:46:31;102872.41;;;3.62;84.84
84944;BME280;75231;53.650;9.788;2024-01-30T00:48:57;102858.75;;;3.63;85.61
84944;BME280;75231;53.650;9.788;2024-01-30T00:51:22;102857.88;;;3.65;85.05
84944;BME280;75231;53.650;9.788;2024-01-30T00:53:47;102850.19;;;3.69;85.74
84944;BME280;75231;53.650;9.788;2024-01-30T00:56:12;102847.66;;;3.73;85.47
84944;BME280;75231;53.650;9.788;2024-01-30T00:58:38;102860.47;;;3.78;85.30
84944;BME280;75231;53.650;9.788;2024-01-30T01:01:03;102855.34;;;3.79;85.54
84944;BME280;75231;53.650;9.788;2024-01-30T01:03:29;102861.28;;;3.83;85.06
84944;BME280;75231;53.650;9.788;2024-01-30T01:05:54;102854.47;;;3.88;85.21
84944;BME280;75231;53.650;9.788;2024-01-30T01:08:20;102863.84;;;3.95;85.47
84944;BME280;75231;53.650;9.788;2024-01-30T01:10:45;102857.00;;;4.00;85.59
84944;BME280;75231;53.650;9.788;2024-01-30T01:13:10;102860.41;;;4.07;85.42
84944;BME280;75231;53.650;9.788;2024-01-30T01:15:36;102873.19;;;4.14;85.32
84944;BME280;75231;53.650;9.788;2024-01-30T01:18:02;102874.88;;;4.25;85.40
84944;BME280;75231;53.650;9.788;2024-01-30T01:20:27;102856.06;;;4.32;85.53
84944;BME280;75231;53.650;9.788;2024-01-30T01:22:53;102857.72;;;4.48;85.77
84944;BME280;75231;53.650;9.788;2024-01-30T01:25:18;102861.91;;;4.64;85.48
84944;BME280;75231;53.650;9.788;2024-01-30T01:27:43;102862.72;;;4.78;85.95
84944;BME280;75231;53.650;9.788;2024-01-30T01:30:16;102862.63;;;4.95;85.65
84944;BME280;75231;53.650;9.788;2024-01-30T01:32:46;102869.41;;;5.07;85.16
84944;BME280;75231;53.650;9.788;2024-01-30T01:35:21;102856.50;;;5.22;84.87
84944;BME280;75231;53.650;9.788;2024-01-30T01:37:46;102841.88;;;5.30;84.19
84944;BME280;75231;53.650;9.788;2024-01-30T01:40:11;102854.59;;;5.47;83.99
84944;BME280;75231;53.650;9.788;2024-01-30T01:42:36;102849.41;;;5.50;83.25
84944;BME280;75231;53.650;9.788;2024-01-30T01:45:02;102847.63;;;5.60;83.38
84944;BME280;75231;53.650;9.788;2024-01-30T01:47:27;102838.22;;;5.62;82.86
84944;BME280;75231;53.650;9.788;2024-01-30T01:49:52;102851.78;;;5.73;82.67
84944;BME280;75231;53.650;9.788;2024-01-30T01:52:18;102837.28;;;5.71;82.62
84944;BME280;75231;53.650;9.788;2024-01-30T01:54:43;102830.41;;;5.73;82.85
84944;BME280;75231;53.650;9.788;2024-01-30T01:57:09;102828.59;;;5.81;82.19
84944;BME280;75231;53.650;9.788;2024-01-30T01:59:34;102816.66;;;5.75;82.18
84944;BME280;75231;53.650;9.788;2024-01-30T02:01:59;102828.63;;;5.76;82.34
84944;BME280;75231;53.650;9.788;2024-01-30T02:04:27;102819.31;;;5.68;82.63
84944;BME280;75231;53.650;9.788;2024-01-30T02:06:52;102817.63;;;5.65;82.95
84944;BME280;75231;53.650;9.788;2024-01-30T02:09:17;102805.81;;;5.49;83.51
84944;BME280;75231;53.650;9.788;2024-01-30T02:11:43;102816.97;;;5.46;83.31
84944;BME280;75231;53.650;9.788;2024-01-30T02:14:08;102808.47;;;5.35;83.97
84944;BME280;75231;53.650;9.788;2024-01-30T02:16:34;102816.13;;;5.41;83.53
84944;BME280;75231;53.650;9.788;2024-01-30T02:18:59;102807.66;;;5.33;83.41
84944;BME280;75231;53.650;9.788;2024-01-30T02:21:24;102817.06;;;5.31;84.04
84944;BME280;75231;53.650;9.788;2024-01-30T02:23:50;102815.41;;;5.24;84.21
84944;BME280;75231;53.650;9.788;2024-01-30T02:26:15;102818.00;;;5.19;84.23
84944;BME280;75231;53.650;9.788;2024-01-30T02:28:41;102796.75;;;5.03;84.29
84944;BME280;75231;53.650;9.788;2024-01-30T02:31:06;102809.56;;;5.02;84.50
84944;BME280;75231;53.650;9.788;2024-01-30T02:33:31;102803.63;;;4.98;84.40
84944;BME280;75231;53.650;9.788;2024-01-30T02:35:57;102800.25;;;4.92;84.79
84944;BME280;75231;53.650;9.788;2024-01-30T02:38:22;102802.00;;;4.85;84.67
84944;BME280;75231;53.650;9.788;2024-01-30T02:40:48;102801.19;;;4.77;84.44
84944;BME280;75231;53.650;9.788;2024-01-30T02:43:14;102802.06;;;4.76;84.93
84944;BME280;75231;53.650;9.788;2024-01-30T02:45:39;102798.66;;;4.69;84.65
84944;BME280;75231;53.650;9.788;2024-01-30T02:48:04;102796.13;;;4.65;84.57
84944;BME280;75231;53.650;9.788;2024-01-30T02:50:30;102801.28;;;4.60;84.90
84944;BME280;75231;53.650;9.788;2024-01-30T02:52:55;102798.75;;;4.53;85.03
84944;BME280;75231;53.650;9.788;2024-01-30T02:55:20;102796.22;;;4.45;85.37
84944;BME280;75231;53.650;9.788;2024-01-30T02:57:45;102784.34;;;4.33;84.80
84944;BME280;75231;53.650;9.788;2024-01-30T03:00:11;102789.44;;;4.32;85.41
84944;BME280;75231;53.650;9.788;2024-01-30T03:02:36;102788.66;;;4.25;85.41
84944;BME280;75231;53.650;9.788;2024-01-30T03:05:03;102787.81;;;4.20;85.34
84944;BME280;75231;53.650;9.788;2024-01-30T03:07:31;102782.69;;;4.14;85.68
84944;BME280;75231;53.650;9.788;2024-01-30T03:09:56;102786.13;;;4.13;85.74
84944;BME280;75231;53.650;9.788;2024-01-30T03:12:22;102795.50;;;4.08;86.08
84944;BME280;75231;53.650;9.788;2024-01-30T03:14:47;102782.75;;;4.03;86.12
84944;BME280;75231;53.650;9.788;2024-01-30T03:17:12;102770.81;;;3.98;85.92
84944;BME280;75231;53.650;9.788;2024-01-30T03:19:38;102774.22;;;3.92;86.09
84944;BME280;75231;53.650;9.788;2024-01-30T03:22:03;102772.53;;;3.91;86.05
84944;BME280;75231;53.650;9.788;2024-01-30T03:24:29;102781.91;;;3.92;85.94
84944;BME280;75231;53.650;9.788;2024-01-30T03:26:54;102772.53;;;3.88;86.11
84944;BME280;75231;53.650;9.788;2024-01-30T03:29:19;102767.41;;;3.88;85.96
84944;BME280;75231;53.650;9.788;2024-01-30T03:31:45;102758.03;;;3.84;86.41
84944;BME280;75231;53.650;9.788;2024-01-30T03:34:10;102748.66;;;3.83;86.23
84944;BME280;75231;53.650;9.788;2024-01-30T03:36:35;102749.50;;;3.85;86.74
84944;BME280;75231;53.650;9.788;2024-01-30T03:39:01;102747.75;;;3.98;87.29
84944;BME280;75231;53.650;9.788;2024-01-30T03:41:26;102753.69;;;4.10;86.75
84944;BME280;75231;53.650;9.788;2024-01-30T03:43:52;102751.13;;;4.12;86.63
84944;BME280;75231;53.650;9.788;2024-01-30T03:46:17;102744.31;;;4.05;86.59
84944;BME280;75231;53.650;9.788;2024-01-30T03:48:42;102748.56;;;4.12;86.74
84944;BME280;75231;53.650;9.788;2024-01-30T03:51:08;102743.44;;;4.12;86.90
84944;BME280;75231;53.650;9.788;2024-01-30T03:53:34;102751.13;;;4.12;86.81
84944;BME280;75231;53.650;9.788;2024-01-30T03:56:00;102751.13;;;4.06;86.30
84944;BME280;75231;53.650;9.788;2024-01-30T03:58:25;102749.47;;;3.92;86.38
84944;BME280;75231;53.650;9.788;2024-01-30T04:00:51;102756.28;;;3.92;86.88
84944;BME280;75231;53.650;9.788;2024-01-30T04:03:16;102766.56;;;3.89;86.64
84944;BME280;75231;53.650;9.788;2024-01-30T04:05:42;102757.19;;;3.82;86.28
84944;BME280;75231;53.650;9.788;2024-01-30T04:08:07;102757.19;;;3.76;86.38
84944;BME280;75231;53.650;9.788;2024-01-30T04:10:33;102749.53;;;3.67;86.60
84944;BME280;75231;53.650;9.788;2024-01-30T04:12:59;102745.28;;;3.65;86.77
84944;BME280;75231;53.650;9.788;2024-01-30T04:15:25;102738.47;;;3.58;87.02
84944;BME280;75231;53.650;9.788;2024-01-30T04:17:50;102740.19;;;3.55;86.95
84944;BME280;75231;53.650;9.788;2024-01-30T04:20:16;102748.72;;;3.61;86.86
84944;BME280;75231;53.650;9.788;2024-01-30T04:22:43;102752.97;;;3.64;87.51
84944;BME280;75231;53.650;9.788;2024-01-30T04:25:09;102740.19;;;3.58;87.40
84944;BME280;75231;53.650;9.788;2024-01-30T04:27:34;102753.81;;;3.68;87.29
84944;BME280;75231;53.650;9.788;2024-01-30T04:29:59;102746.13;;;3.60;87.16
84944;BME280;75231;53.650;9.788;2024-01-30T04:32:25;102750.41;;;3.59;86.84
84944;BME280;75231;53.650;9.788;2024-01-30T04:34:50;102750.44;;;3.56;86.94
84944;BME280;75231;53.650;9.788;2024-01-30T04:37:15;102752.13;;;3.54;87.06
84944;BME280;75231;53.650;9.788;2024-01-30T04:39:40;102756.41;;;3.51;87.02
84944;BME280;75231;53.650;9.788;2024-01-30T04:42:06;102753.00;;;3.46;86.55
84944;BME280;75231;53.650;9.788;2024-01-30T04:44:31;102762.38;;;3.42;86.38
84944;BME280;75231;53.650;9.788;2024-01-30T04:46:56;102753.00;;;3.32;86.95
84944;BME280;75231;53.650;9.788;2024-01-30T04:49:24;102763.22;;;3.36;86.66
84944;BME280;75231;53.650;9.788;2024-01-30T04:51:49;102760.66;;;3.35;87.24
84944;BME280;75231;53.650;9.788;2024-01-30T04:54:14;102762.41;;;3.30;86.35
84944;BME280;75231;53.650;9.788;2024-01-30T04:56:40;102757.28;;;3.31;86.43
84944;BME280;75231;53.650;9.788;2024-01-30T04:59:05;102744.47;;;3.25;86.44
84944;BME280;75231;53.650;9.788;2024-01-30T05:01:30;102750.47;;;3.29;86.72
84944;BME280;75231;53.650;9.788;2024-01-30T05:03:55;102753.88;;;3.32;86.70
84944;BME280;75231;53.650;9.788;2024-01-30T05:06:27;102754.72;;;3.38;86.98
84944;BME280;75231;53.650;9.788;2024-01-30T05:08:52;102755.53;;;3.44;86.61
84944;BME280;75231;53.650;9.788;2024-01-30T05:11:18;102757.25;;;3.48;86.70
84944;BME280;75231;53.650;9.788;2024-01-30T05:13:43;102756.41;;;3.51;86.59
84944;BME280;75231;53.650;9.788;2024-01-30T05:16:08;102748.72;;;3.55;86.72
84944;BME280;75231;53.650;9.788;2024-01-30T05:18:34;102753.84;;;3.61;86.40
84944;BME280;75231;53.650;9.788;2024-01-30T05:20:59;102750.41;;;3.65;86.38
84944;BME280;75231;53.650;9.788;2024-01-30T05:23:24;102755.53;;;3.65;86.17
84944;BME280;75231;53.650;9.788;2024-01-30T05:25:50;102751.25;;;3.66;86.28
84944;BME280;75231;53.650;9.788;2024-01-30T05:28:15;102749.50;;;3.76;86.56
84944;BME280;75231;53.650;9.788;2024-01-30T05:30:40;102746.06;;;3.84;86.43
84944;BME280;75231;53.650;9.788;2024-01-30T05:33:05;102736.72;;;3.86;86.36
84944;BME280;75231;53.650;9.788;2024-01-30T05:35:31;102740.09;;;3.96;86.31
84944;BME280;75231;53.650;9.788;2024-01-30T05:37:56;102735.78;;;4.04;87.33
84944;BME280;75231;53.650;9.788;2024-01-30T05:40:21;102724.69;;;4.05;86.67
84944;BME280;75231;53.650;9.788;2024-01-30T05:42:47;102730.59;;;4.15;86.43
84944;BME280;75231;53.650;9.788;2024-01-30T05:45:13;102728.91;;;4.18;86.91
84944;BME280;75231;53.650;9.788;2024-01-30T05:47:38;102724.59;;;4.22;86.78
84944;BME280;75231;53.650;9.788;2024-01-30T05:50:04;102718.63;;;4.26;86.73
84944;BME280;75231;53.650;9.788;2024-01-30T05:52:31;102728.81;;;4.34;87.49
84944;BME280;75231;53.650;9.788;2024-01-30T05:54:56;102721.97;;;4.37;87.49
84944;BME280;75231;53.650;9.788;2024-01-30T05:57:21;102732.19;;;4.40;87.36
84944;BME280;75231;53.650;9.788;2024-01-30T05:59:46;102725.31;;;4.47;87.59
84944;BME280;75231;53.650;9.788;2024-01-30T06:02:13;102722.75;;;4.48;87.43
84944;BME280;75231;53.650;9.788;2024-01-30T06:04:38;102718.47;;;4.52;87.49
84944;BME280;75231;53.650;9.788;2024-01-30T06:07:03;102703.09;;;4.49;87.30
84944;BME280;75231;53.650;9.788;2024-01-30T06:09:31;102713.31;;;4.54;87.79
84944;BME280;75231;53.650;9.788;2024-01-30T06:11:56;102708.19;;;4.55;87.96
84944;BME280;75231;53.650;9.788;2024-01-30T06:14:22;102720.06;;;4.70;88.06
84944;BME280;75231;53.650;9.788;2024-01-30T06:16:47;102712.31;;;4.76;87.63
84944;BME280;75231;53.650;9.788;2024-01-30T06:19:12;102710.44;;;4.98;87.42
84944;BME280;75231;53.650;9.788;2024-01-30T06:21:37;102702.72;;;5.01;87.47
84944;BME280;75231;53.650;9.788;2024-01-30T06:24:04;102706.88;;;5.14;87.08
84944;BME280;75231;53.650;9.788;2024-01-30T06:26:29;102696.59;;;5.16;86.89
84944;BME280;75231;53.650;9.788;2024-01-30T06:28:54;102699.06;;;5.26;86.79
84944;BME280;75231;53.650;9.788;2024-01-30T06:31:19;102693.91;;;5.28;86.34
84944;BME280;75231;53.650;9.788;2024-01-30T06:33:48;102683.66;;;5.28;86.39
84944;BME280;75231;53.650;9.788;2024-01-30T06:36:13;102693.06;;;5.30;86.08
84944;BME280;75231;53.650;9.788;2024-01-30T06:38:39;102694.75;;;5.31;86.24
84944;BME280;75231;53.650;9.788;2024-01-30T06:41:04;102684.53;;;5.27;85.92
84944;BME280;75231;53.650;9.788;2024-01-30T06:43:29;102696.53;;;5.23;86.07
84944;BME280;75231;53.650;9.788;2024-01-30T06:45:55;102693.25;;;5.09;86.51
84944;BME280;75231;53.650;9.788;2024-01-30T06:48:20;102695.06;;;4.98;86.48
84944;BME280;75231;53.650;9.788;2024-01-30T06:50:45;102690.81;;;4.94;87.07
84944;BME280;75231;53.650;9.788;2024-01-30T06:53:11;102698.53;;;4.91;87.28
84944;BME280;75231;53.650;9.788;2024-01-30T06:55:36;102708.78;;;4.92;86.96
84944;BME280;75231;53.650;9.788;2024-01-30T06:58:01;102695.13;;;4.87;87.15
84944;BME280;75231;53.650;9.788;2024-01-30T07:00:27;102696.06;;;4.82;87.05
84944;BME280;75231;53.650;9.788;2024-01-30T07:02:52;102706.31;;;4.77;87.22
84944;BME280;75231;53.650;9.788;2024-01-30T07:05:18;102697.00;;;4.67;87.82
84944;BME280;75231;53.650;9.788;2024-01-30T07:07:43;102693.59;;;4.63;87.27
84944;BME280;75231;53.650;9.788;2024-01-30T07:10:09;102700.50;;;4.58;86.97
84944;BME280;75231;53.650;9.788;2024-01-30T07:12:34;102695.41;;;4.49;87.04
84944;BME280;75231;53.650;9.788;2024-01-30T07:14:59;102704.81;;;4.52;87.79
84944;BME280;75231;53.650;9.788;2024-01-30T07:17:24;102690.25;;;4.54;88.08
84944;BME280;75231;53.650;9.788;2024-01-30T07:19:50;102695.34;;;4.61;88.34
84944;BME280;75231;53.650;9.788;2024-01-30T07:22:15;102696.16;;;4.66;87.97
84944;BME280;75231;53.650;9.788;2024-01-30T07:24:44;102696.16;;;4.68;87.92
84944;BME280;75231;53.650;9.788;2024-01-30T07:27:14;102697.00;;;4.68;87.96
84944;BME280;75231;53.650;9.788;2024-01-30T07:29:40;102699.53;;;4.74;87.95
84944;BME280;75231;53.650;9.788;2024-01-30T07:32:05;102696.09;;;4.74;87.80
84944;BME280;75231;53.650;9.788;2024-01-30T07:34:30;102699.44;;;4.81;87.75
84944;BME280;75231;53.650;9.788;2024-01-30T07:36:56;102684.97;;;4.76;87.73
84944;BME280;75231;53.650;9.788;2024-01-30T07:39:21;102693.44;;;4.85;86.88
84944;BME280;75231;53.650;9.788;2024-01-30T07:41:46;102688.31;;;4.86;87.34
84944;BME280;75231;53.650;9.788;2024-01-30T07:44:11;102699.38;;;4.93;87.04
84944;BME280;75231;53.650;9.788;2024-01-30T07:46:37;102689.09;;;4.93;87.32
84944;BME280;75231;53.650;9.788;2024-01-30T07:49:02;102689.09;;;4.97;87.18
84944;BME280;75231;53.650;9.788;2024-01-30T07:51:27;102686.47;;;5.00;87.01
84944;BME280;75231;53.650;9.788;2024-01-30T07:53:54;102682.13;;;5.09;87.32
84944;BME280;75231;53.650;9.788;2024-01-30T07:56:20;102679.47;;;5.19;87.77
84944;BME280;75231;53.650;9.788;2024-01-30T07:58:45;102679.38;;;5.30;87.28
84944;BME280;75231;53.650;9.788;2024-01-30T08:01:10;102672.38;;;5.43;87.26
84944;BME280;75231;53.650;9.788;2024-01-30T08:03:36;102668.84;;;5.51;87.20
84944;BME280;75231;53.650;9.788;2024-01-30T08:06:02;102674.72;;;5.64;87.05
84944;BME280;75231;53.650;9.788;2024-01-30T08:08:27;102675.50;;;5.69;86.57
84944;BME280;75231;53.650;9.788;2024-01-30T08:10:53;102665.22;;;5.69;86.65
84944;BME280;75231;53.650;9.788;2024-01-30T08:13:21;102676.16;;;5.85;86.95
84944;BME280;75231;53.650;9.788;2024-01-30T08:15:47;102662.44;;;5.89;86.23
84944;BME280;75231;53.650;9.788;2024-01-30T08:18:12;102666.56;;;6.01;86.31
84944;BME280;75231;53.650;9.788;2024-01-30T08:20:37;102656.28;;;6.04;86.08
84944;BME280;75231;53.650;9.788;2024-01-30T08:23:03;102669.88;;;6.12;85.74
84944;BME280;75231;53.650;9.788;2024-01-30T08:25:28;102655.34;;;6.08;85.65
84944;BME280;75231;53.650;9.788;2024-01-30T08:27:54;102655.31;;;6.12;85.86
84944;BME280;75231;53.650;9.788;2024-01-30T08:30:19;102666.28;;;6.22;85.73
84944;BME280;75231;53.650;9.788;2024-01-30T08:32:44;102649.19;;;6.21;85.82
84944;BME280;75231;53.650;9.788;2024-01-30T08:35:09;102658.41;;;6.33;85.66
84944;BME280;75231;53.650;9.788;2024-01-30T08:37:38;102646.41;;;6.33;85.38
84944;BME280;75231;53.650;9.788;2024-01-30T08:40:04;102648.88;;;6.42;85.23
84944;BME280;75231;53.650;9.788;2024-01-30T08:42:29;102635.97;;;6.45;85.15
84944;BME280;75231;53.650;9.788;2024-01-30T08:44:54;102639.25;;;6.54;84.86
84944;BME280;75231;53.650;9.788;2024-01-30T08:47:21;102626.38;;;6.55;84.91
84944;BME280;75231;53.650;9.788;2024-01-30T08:49:48;102612.53;;;6.62;85.08
84944;BME280;75231;53.650;9.788;2024-01-30T08:52:13;102606.50;;;6.66;84.76
84944;BME280;75231;53.650;9.788;2024-01-30T08:54:39;102616.59;;;6.77;84.13
84944;BME280;75231;53.650;9.788;2024-01-30T08:57:04;102614.81;;;6.79;84.15
84944;BME280;75231;53.650;9.788;2024-01-30T08:59:29;102631.81;;;6.88;83.98
84944;BME280;75231;53.650;9.788;2024-01-30T09:01:55;102630.16;;;6.85;83.98
84944;BME280;75231;53.650;9.788;2024-01-30T09:04:23;102636.91;;;6.92;84.14
84944;BME280;75231;53.650;9.788;2024-01-30T09:06:48;102630.88;;;6.93;83.78
84944;BME280;75231;53.650;9.788;2024-01-30T09:09:14;102641.00;;;7.03;83.77
84944;BME280;75231;53.650;9.788;2024-01-30T09:11:39;102650.34;;;7.08;84.32
84944;BME280;75231;53.650;9.788;2024-01-30T09:14:05;102655.38;;;7.16;83.53
84944;BME280;75231;53.650;9.788;2024-01-30T09:16:30;102651.81;;;7.21;83.54
84944;BME280;75231;53.650;9.788;2024-01-30T09:18:55;102652.63;;;7.25;83.19
84944;BME280;75231;53.650;9.788;2024-01-30T09:21:20;102666.09;;;7.39;82.97
84944;BME280;75231;53.650;9.788;2024-01-30T09:23:45;102662.56;;;7.43;83.77
84944;BME280;75231;53.650;9.788;2024-01-30T09:26:11;102669.13;;;7.58;83.67
84944;BME280;75231;53.650;9.788;2024-01-30T09:28:37;102662.03;;;7.71;82.83
84944;BME280;75231;53.650;9.788;2024-01-30T09:31:09;102657.50;;;7.82;82.47
84944;BME280;75231;53.650;9.788;2024-01-30T09:33:34;102660.53;;;8.01;82.29
84944;BME280;75231;53.650;9.788;2024-01-30T09:36:01;102656.84;;;8.12;81.25
84944;BME280;75231;53.650;9.788;2024-01-30T09:38:26;102657.56;;;8.18;81.04
84944;BME280;75231;53.650;9.788;2024-01-30T09:40:54;102650.47;;;8.29;80.52
84944;BME280;75231;53.650;9.788;2024-01-30T09:43:22;102648.44;;;8.41;80.25
84944;BME280;75231;53.650;9.788;2024-01-30T09:45:51;102656.00;;;8.49;79.98
84944;BME280;75231;53.650;9.788;2024-01-30T09:48:19;102643.13;;;8.49;80.16
84944;BME280;75231;53.650;9.788;2024-01-30T09:50:44;102635.31;;;8.52;79.58
84944;BME280;75231;53.650;9.788;2024-01-30T09:53:09;102637.59;;;8.64;79.23
84944;BME280;75231;53.650;9.788;2024-01-30T09:55:36;102630.69;;;8.66;79.46
84944;BME280;75231;53.650;9.788;2024-01-30T09:58:02;102621.88;;;8.74;79.18
84944;BME280;75231;53.650;9.788;2024-01-30T10:00:27;102625.09;;;8.82;78.95
84944;BME280;75231;53.650;9.788;2024-01-30T10:02:53;102621.63;;;8.84;78.68
84944;BME280;75231;53.650;9.788;2024-01-30T10:05:19;102626.66;;;8.89;78.70
84944;BME280;75231;53.650;9.788;2024-01-30T10:07:56;102632.34;;;9.02;77.69
84944;BME280;75231;53.650;9.788;2024-01-30T10:10:22;102634.72;;;9.09;77.87
84944;BME280;75231;53.650;9.788;2024-01-30T10:12:48;102637.16;;;9.14;76.90
84944;BME280;75231;53.650;9.788;2024-01-30T10:15:14;102637.09;;;9.17;76.93
84944;BME280;75231;53.650;9.788;2024-01-30T10:17:39;102629.38;;;9.17;76.93
84944;BME280;75231;53.650;9.788;2024-01-30T10:20:05;102629.22;;;9.21;77.57
84944;BME280;75231;53.650;9.788;2024-01-30T10:22:30;102632.63;;;9.23;77.32
84944;BME280;75231;53.650;9.788;2024-01-30T10:24:56;102622.31;;;9.23;77.29
84944;BME280;75231;53.650;9.788;2024-01-30T10:27:27;102617.84;;;9.29;76.79
84944;BME280;75231;53.650;9.788;2024-01-30T10:29:55;102617.56;;;9.39;77.04
84944;BME280;75231;53.650;9.788;2024-01-30T10:32:20;102616.50;;;9.46;76.49
84944;BME280;75231;53.650;9.788;2024-01-30T10:34:46;102606.97;;;9.48;75.91
84944;BME280;75231;53.650;9.788;2024-01-30T10:37:12;102605.84;;;9.57;76.16
84944;BME280;75231;53.650;9.788;2024-01-30T10:39:40;102611.63;;;9.65;76.48
84944;BME280;75231;53.650;9.788;2024-01-30T10:42:06;102611.38;;;9.74;75.82
84944;BME280;75231;53.650;9.788;2024-01-30T10:44:46;102603.56;;;9.76;75.54
84944;BME280;75231;53.650;9.788;2024-01-30T10:47:18;102613.66;;;9.84;76.37
84944;BME280;75231;53.650;9.788;2024-01-30T10:49:47;102606.72;;;9.86;75.95
84944;BME280;75231;53.650;9.788;2024-01-30T10:52:13;102605.22;;;9.78;75.48
84944;BME280;75231;53.650;9.788;2024-01-30T10:54:40;102611.88;;;9.86;75.61
84944;BME280;75231;53.650;9.788;2024-01-30T10:57:05;102609.06;;;9.93;75.75
84944;BME280;75231;53.650;9.788;2024-01-30T10:59:31;102597.97;;;9.90;75.88
84944;BME280;75231;53.650;9.788;2024-01-30T11:01:58;102600.41;;;9.94;75.99
84944;BME280;75231;53.650;9.788;2024-01-30T11:04:24;102602.56;;;10.08;74.92
84944;BME280;75231;53.650;9.788;2024-01-30T11:06:50;102600.03;;;10.06;75.71
84944;BME280;75231;53.650;9.788;2024-01-30T11:09:17;102603.28;;;10.13;75.06
84944;BME280;75231;53.650;9.788;2024-01-30T11:11:57;102591.19;;;10.14;75.53
84944;BME280;75231;53.650;9.788;2024-01-30T11:14:27;102606.53;;;10.20;75.09
84944;BME280;75231;53.650;9.788;2024-01-30T11:16:57;102603.88;;;10.21;75.02
84944;BME280;75231;53.650;9.788;2024-01-30T11:19:24;102607.31;;;10.23;75.35
84944;BME280;75231;53.650;9.788;2024-01-30T11:21:53;102598.63;;;10.24;75.13
84944;BME280;75231;53.650;9.788;2024-01-30T11:24:23;102597.84;;;10.22;75.09
84944;BME280;75231;53.650;9.788;2024-01-30T11:26:58;102597.84;;;10.22;75.37
84944;BME280;75231;53.650;9.788;2024-01-30T11:29:27;102593.47;;;10.24;75.30
84944;BME280;75231;53.650;9.788;2024-01-30T11:31:57;102590.88;;;10.24;75.34
84944;BME280;75231;53.650;9.788;2024-01-30T11:34:23;102588.28;;;10.24;75.32
84944;BME280;75231;53.650;9.788;2024-01-30T11:36:56;102578.94;;;10.20;75.15
84944;BME280;75231;53.650;9.788;2024-01-30T11:39:25;102581.50;;;10.20;75.37
84944;BME280;75231;53.650;9.788;2024-01-30T11:41:51;102591.78;;;10.23;75.15
84944;BME280;75231;53.650;9.788;2024-01-30T11:44:18;102583.97;;;10.25;75.07
84944;BME280;75231;53.650;9.788;2024-01-30T11:46:43;102577.16;;;10.22;75.03
84944;BME280;75231;53.650;9.788;2024-01-30T11:49:08;102580.53;;;10.24;75.30
84944;BME280;75231;53.650;9.788;2024-01-30T11:51:34;102581.31;;;10.26;75.50
84944;BME280;75231;53.650;9.788;2024-01-30T11:53:59;102575.16;;;10.30;75.48
84944;BME280;75231;53.650;9.788;2024-01-30T11:56:24;102583.06;;;10.26;75.45
84944;BME280;75231;53.650;9.788;2024-01-30T11:58:51;102569.47;;;10.19;75.49
84944;BME280;75231;53.650;9.788;2024-01-30T12:01:17;102584.03;;;10.22;75.55
84944;BME280;75231;53.650;9.788;2024-01-30T12:03:43;102587.53;;;10.21;75.53
84944;BME280;75231;53.650;9.788;2024-01-30T12:06:15;102570.41;;;10.17;75.45
84944;BME280;75231;53.650;9.788;2024-01-30T12:08:40;102577.94;;;10.24;75.90
84944;BME280;75231;53.650;9.788;2024-01-30T12:11:06;102575.31;;;10.26;75.62
84944;BME280;75231;53.650;9.788;2024-01-30T12:13:32;102570.19;;;10.24;75.66
84944;BME280;75231;53.650;9.788;2024-01-30T12:15:57;102570.78;;;10.32;75.83
84944;BME280;75231;53.650;9.788;2024-01-30T12:18:22;102570.66;;;10.37;75.61
84944;BME280;75231;53.650;9.788;2024-01-30T12:21:00;102574.38;;;10.28;75.96
84944;BME280;75231;53.650;9.788;2024-01-30T12:23:30;102569.22;;;10.28;75.57
84944;BME280;75231;53.650;9.788;2024-01-30T12:25:57;102565.81;;;10.26;76.04
84944;BME280;75231;53.650;9.788;2024-01-30T12:28:22;102570.84;;;10.31;76.21
84944;BME280;75231;53.650;9.788;2024-01-30T12:30:48;102571.69;;;10.31;75.76
84944;BME280;75231;53.650;9.788;2024-01-30T12:33:17;102579.25;;;10.38;76.31
84944;BME280;75231;53.650;9.788;2024-01-30T12:35:47;102566.25;;;10.39;75.50
84944;BME280;75231;53.650;9.788;2024-01-30T12:38:15;102575.44;;;10.48;75.65
84944;BME280;75231;53.650;9.788;2024-01-30T12:40:40;102574.56;;;10.49;75.68
84944;BME280;75231;53.650;9.788;2024-01-30T12:43:06;102574.56;;;10.49;75.82
84944;BME280;75231;53.650;9.788;2024-01-30T12:45:31;102576.16;;;10.53;75.82
84944;BME280;75231;53.650;9.788;2024-01-30T12:47:56;102571.03;;;10.51;75.53
84944;BME280;75231;53.650;9.788;2024-01-30T12:50:23;102576.94;;;10.55;75.99